createdAt,value
2023-03-01T00:02:10.487Z,7.68
2023-03-01T00:04:37.690Z,7.82
2023-03-01T00:07:04.824Z,6.68
2023-03-01T00:09:32.006Z,7.85
2023-03-01T00:11:59.081Z,8.18
2023-03-01T00:14:26.183Z,7.32
2023-03-01T00:16:53.364Z,8.45
2023-03-01T00:19:21.353Z,9.02
2023-03-01T00:21:48.500Z,9.10
2023-03-01T00:24:15.980Z,9.85
2023-03-01T00:26:43.072Z,8.32
2023-03-01T00:29:10.187Z,8.57
2023-03-01T00:31:37.234Z,8.40
2023-03-01T00:34:06.119Z,8.82
2023-03-01T00:36:34.817Z,7.80
2023-03-01T00:39:02.326Z,9.07
2023-03-01T00:41:29.695Z,10.13
2023-03-01T00:43:57.025Z,9.63
2023-03-01T00:46:25.557Z,8.68
2023-03-01T00:48:52.678Z,10.43
2023-03-01T00:51:24.243Z,8.90
2023-03-01T00:53:58.560Z,9.73
2023-03-01T00:56:26.319Z,10.18
2023-03-01T00:58:53.481Z,9.48
2023-03-01T01:01:22.407Z,9.05
2023-03-01T01:03:51.851Z,9.18
2023-03-01T01:06:23.213Z,10.10
2023-03-01T01:08:51.333Z,8.85
2023-03-01T01:11:18.470Z,9.65
2023-03-01T01:13:46.954Z,8.80
2023-03-01T01:16:14.260Z,9.23
2023-03-01T01:18:41.540Z,10.10
2023-03-01T01:21:13.248Z,10.23
2023-03-01T01:23:41.279Z,10.93
2023-03-01T01:26:09.280Z,10.25
2023-03-01T01:28:36.556Z,10.50
2023-03-01T01:31:03.811Z,9.70
2023-03-01T01:33:31.053Z,10.00
2023-03-01T01:35:58.213Z,10.65
2023-03-01T01:38:25.448Z,11.35
2023-03-01T01:40:53.166Z,9.18
2023-03-01T01:43:20.345Z,10.75
2023-03-01T01:45:47.493Z,10.95
2023-03-01T01:48:18.266Z,10.73
2023-03-01T01:50:46.070Z,10.57
2023-03-01T01:53:16.543Z,10.27
2023-03-01T01:55:45.099Z,11.02
2023-03-01T01:58:15.390Z,10.07
2023-03-01T02:00:42.511Z,11.55
2023-03-01T02:03:11.724Z,12.25
2023-03-01T02:05:55.713Z,10.32
2023-03-01T02:08:24.587Z,10.90
2023-03-01T02:10:51.948Z,11.57
2023-03-01T02:13:19.103Z,12.52
2023-03-01T02:15:46.287Z,10.48
2023-03-01T02:18:16.057Z,9.30
2023-03-01T02:21:01.730Z,10.75
2023-03-01T02:23:29.549Z,10.55
2023-03-01T02:25:59.342Z,10.55
2023-03-01T02:28:37.560Z,11.27
2023-03-01T02:31:27.960Z,11.57
2023-03-01T02:33:55.720Z,11.02
2023-03-01T02:36:43.059Z,11.80
2023-03-01T02:39:15.338Z,10.57
2023-03-01T02:41:44.183Z,10.55
2023-03-01T02:44:11.427Z,10.27
2023-03-01T02:46:44.814Z,11.20
2023-03-01T02:49:22.872Z,11.13
2023-03-01T02:51:49.968Z,10.57
2023-03-01T02:54:28.915Z,12.13
2023-03-01T02:56:57.082Z,10.43
2023-03-01T02:59:26.294Z,13.73
2023-03-01T03:01:53.383Z,11.88
2023-03-01T03:04:21.941Z,19.50
2023-03-01T03:06:50.723Z,16.05
2023-03-01T03:09:18.567Z,15.85
2023-03-01T03:11:45.958Z,19.20
2023-03-01T03:14:14.141Z,19.35
2023-03-01T03:16:42.776Z,14.27
2023-03-01T03:19:09.887Z,15.48
2023-03-01T03:21:37.108Z,16.08
2023-03-01T03:24:04.471Z,15.88
2023-03-01T03:26:31.915Z,17.75
2023-03-01T03:28:59.163Z,16.65
2023-03-01T03:31:26.605Z,16.55
2023-03-01T03:33:53.701Z,16.77
2023-03-01T03:36:22.433Z,14.93
2023-03-01T03:38:49.874Z,12.95
2023-03-01T03:41:17.469Z,14.85
2023-03-01T03:43:44.612Z,15.13
2023-03-01T03:46:12.706Z,13.27
2023-03-01T03:48:41.175Z,12.88
2023-03-01T03:51:08.728Z,12.00
2023-03-01T03:53:35.957Z,14.55
2023-03-01T03:56:03.026Z,14.10
2023-03-01T03:58:30.067Z,10.85
2023-03-01T04:00:58.476Z,12.05
2023-03-01T04:03:27.149Z,9.90
2023-03-01T04:05:54.504Z,10.98
2023-03-01T04:08:22.559Z,12.00
2023-03-01T04:10:51.678Z,11.68
2023-03-01T04:13:20.806Z,11.68
2023-03-01T04:15:48.373Z,11.43
2023-03-01T04:18:15.972Z,11.10
2023-03-01T04:20:43.552Z,11.77
2023-03-01T04:23:17.328Z,11.55
2023-03-01T04:25:47.583Z,10.85
2023-03-01T04:28:15.078Z,10.77
2023-03-01T04:30:42.416Z,11.48
2023-03-01T04:33:10.731Z,11.27
2023-03-01T04:35:38.375Z,10.80
2023-03-01T04:38:06.199Z,9.40
2023-03-01T04:40:33.397Z,11.10
2023-03-01T04:43:00.554Z,9.80
2023-03-01T04:45:28.753Z,9.50
2023-03-01T04:47:55.908Z,10.93
2023-03-01T04:50:24.413Z,9.75
2023-03-01T04:52:51.575Z,8.65
2023-03-01T04:55:18.673Z,9.65
2023-03-01T04:57:45.884Z,8.57
2023-03-01T05:00:23.107Z,9.95
2023-03-01T05:02:56.252Z,8.95
2023-03-01T05:05:26.604Z,7.68
2023-03-01T05:07:57.954Z,9.10
2023-03-01T05:10:25.552Z,9.15
2023-03-01T05:12:53.909Z,9.18
2023-03-01T05:15:22.681Z,9.30
2023-03-01T05:17:50.539Z,9.50
2023-03-01T05:20:17.659Z,9.88
2023-03-01T05:22:45.082Z,8.50
2023-03-01T05:25:14.900Z,10.43
2023-03-01T05:27:42.002Z,9.55
2023-03-01T05:30:15.613Z,8.35
2023-03-01T05:32:44.619Z,9.07
2023-03-01T05:35:14.192Z,8.77
2023-03-01T05:37:42.822Z,9.38
2023-03-01T05:40:16.416Z,7.82
2023-03-01T05:42:55.231Z,9.20
2023-03-01T05:45:22.977Z,8.30
2023-03-01T05:47:50.549Z,9.80
2023-03-01T05:50:22.082Z,9.30
2023-03-01T05:52:50.070Z,8.27
2023-03-01T05:55:20.806Z,8.60
2023-03-01T05:57:48.386Z,8.23
2023-03-01T06:00:16.767Z,7.97
2023-03-01T06:02:44.024Z,7.93
2023-03-01T06:05:12.163Z,8.80
2023-03-01T06:07:39.717Z,8.45
2023-03-01T06:10:07.174Z,8.77
2023-03-01T06:12:34.853Z,10.02
2023-03-01T06:15:02.140Z,9.07
2023-03-01T06:17:32.551Z,7.55
2023-03-01T06:19:59.714Z,8.65
2023-03-01T06:22:26.777Z,8.98
2023-03-01T06:24:53.875Z,7.45
2023-03-01T06:27:20.934Z,8.35
2023-03-01T06:29:48.084Z,8.82
2023-03-01T06:32:15.188Z,8.88
2023-03-01T06:34:42.409Z,8.50
2023-03-01T06:37:09.876Z,9.32
2023-03-01T06:39:37.145Z,9.68
2023-03-01T06:42:04.297Z,9.13
2023-03-01T06:44:31.396Z,8.50
2023-03-01T06:46:58.571Z,8.07
2023-03-01T06:49:25.815Z,8.77
2023-03-01T06:51:52.882Z,9.52
2023-03-01T06:54:23.014Z,9.75
2023-03-01T06:56:50.855Z,10.40
2023-03-01T06:59:18.628Z,9.77
2023-03-01T07:01:45.857Z,9.23
2023-03-01T07:04:14.071Z,8.98
2023-03-01T07:06:41.759Z,10.43
2023-03-01T07:09:08.820Z,9.52
2023-03-01T07:11:36.071Z,10.18
2023-03-01T07:14:03.235Z,9.60
2023-03-01T07:16:30.576Z,9.65
2023-03-01T07:18:59.694Z,10.75
2023-03-01T07:21:27.017Z,10.57
2023-03-01T07:23:54.107Z,10.27
2023-03-01T07:26:21.214Z,11.07
2023-03-01T07:28:48.491Z,12.02
2023-03-01T07:31:15.741Z,10.60
2023-03-01T07:33:42.924Z,13.45
2023-03-01T07:36:10.914Z,14.07
2023-03-01T07:38:38.144Z,14.75
2023-03-01T07:41:06.647Z,17.35
2023-03-01T07:43:34.005Z,17.70
2023-03-01T07:46:02.044Z,20.75
2023-03-01T07:48:29.838Z,23.33
2023-03-01T07:50:59.671Z,23.35
2023-03-01T07:53:26.818Z,24.33
2023-03-01T07:56:07.552Z,25.42
2023-03-01T07:58:38.641Z,23.63
2023-03-01T08:01:10.561Z,22.20
2023-03-01T08:03:37.983Z,22.27
2023-03-01T08:06:06.741Z,22.67
2023-03-01T08:08:34.546Z,21.75
2023-03-01T08:11:02.908Z,18.55
2023-03-01T08:13:30.361Z,19.42
2023-03-01T08:16:03.133Z,17.55
2023-03-01T08:18:30.497Z,16.85
2023-03-01T08:20:57.687Z,18.75
2023-03-01T08:23:24.918Z,18.73
2023-03-01T08:25:52.000Z,20.98
2023-03-01T08:28:19.140Z,17.90
2023-03-01T08:30:46.255Z,11.80
2023-03-01T08:33:13.371Z,8.50
2023-03-01T08:35:40.639Z,7.65
2023-03-01T08:38:07.790Z,7.18
2023-03-01T08:40:34.878Z,6.65
2023-03-01T08:43:01.952Z,6.57
2023-03-01T08:45:29.061Z,7.00
2023-03-01T08:47:56.140Z,6.05
2023-03-01T08:50:25.353Z,5.68
2023-03-01T08:52:52.777Z,6.05
2023-03-01T08:55:19.854Z,5.28
2023-03-01T08:57:47.040Z,6.07
2023-03-01T09:00:15.875Z,4.95
2023-03-01T09:02:43.053Z,5.43
2023-03-01T09:05:10.458Z,5.35
2023-03-01T09:07:37.546Z,6.03
2023-03-01T09:10:04.878Z,4.50
2023-03-01T09:12:31.989Z,4.90
2023-03-01T09:14:59.028Z,4.25
2023-03-01T09:17:26.133Z,4.82
2023-03-01T09:19:53.296Z,4.68
2023-03-01T09:22:20.413Z,4.43
2023-03-01T09:24:47.653Z,3.97
2023-03-01T09:27:15.610Z,3.83
2023-03-01T09:29:42.833Z,4.10
2023-03-01T09:32:10.167Z,4.32
2023-03-01T09:34:56.534Z,3.00
2023-03-01T09:37:23.795Z,3.78
2023-03-01T09:39:50.982Z,2.72
2023-03-01T09:42:18.176Z,3.40
2023-03-01T09:45:05.986Z,3.65
2023-03-01T09:47:34.734Z,3.67
2023-03-01T09:50:01.774Z,3.05
2023-03-01T09:52:44.286Z,2.70
2023-03-01T09:55:16.146Z,2.70
2023-03-01T10:00:28.911Z,2.03
2023-03-01T10:03:02.467Z,2.17
2023-03-01T10:05:47.711Z,1.73
2023-03-01T10:08:34.428Z,2.15
2023-03-01T10:11:01.959Z,1.80
2023-03-01T10:13:38.225Z,2.28
2023-03-01T10:16:21.815Z,2.00
2023-03-01T10:18:53.565Z,1.70
2023-03-01T10:21:21.252Z,1.30
2023-03-01T10:23:51.348Z,1.60
2023-03-01T10:26:18.485Z,1.52
2023-03-01T10:28:45.535Z,2.00
2023-03-01T10:31:17.187Z,1.65
2023-03-01T10:33:44.325Z,2.17
2023-03-01T10:36:11.604Z,1.75
2023-03-01T10:38:54.835Z,2.72
2023-03-01T10:41:26.166Z,2.50
2023-03-01T10:43:58.739Z,2.55
2023-03-01T10:46:25.983Z,2.05
2023-03-01T10:49:08.444Z,2.17
2023-03-01T10:51:35.635Z,2.15
2023-03-01T10:54:03.564Z,2.47
2023-03-01T10:56:34.625Z,1.80
2023-03-01T10:59:01.729Z,2.07
2023-03-01T11:01:36.767Z,2.05
2023-03-01T11:04:06.941Z,2.40
2023-03-01T11:06:41.131Z,2.42
2023-03-01T11:09:19.773Z,2.45
2023-03-01T11:11:47.032Z,2.55
2023-03-01T11:14:26.708Z,2.55
2023-03-01T11:17:05.234Z,2.42
2023-03-01T11:19:32.889Z,2.10
2023-03-01T11:22:02.966Z,2.70
2023-03-01T11:24:39.574Z,2.30
2023-03-01T11:27:16.164Z,2.40
2023-03-01T11:29:48.929Z,2.80
2023-03-01T11:32:17.106Z,2.35
2023-03-01T11:34:44.354Z,2.25
2023-03-01T11:37:15.498Z,2.15
2023-03-01T11:39:46.307Z,2.38
2023-03-01T11:42:20.125Z,2.85
2023-03-01T11:44:49.246Z,3.05
2023-03-01T11:47:32.394Z,2.67
2023-03-01T11:49:59.540Z,2.83
2023-03-01T11:52:26.668Z,3.22
2023-03-01T11:54:56.770Z,3.10
2023-03-01T11:57:42.382Z,2.80
2023-03-01T12:00:15.871Z,3.17
2023-03-01T12:02:49.656Z,2.72
2023-03-01T12:05:30.974Z,3.20
2023-03-01T12:08:06.225Z,2.80
2023-03-01T12:10:42.561Z,2.53
2023-03-01T12:13:24.622Z,2.72
2023-03-01T12:18:38.413Z,3.05
2023-03-01T12:21:05.547Z,2.72
2023-03-01T12:23:46.213Z,3.20
2023-03-01T12:26:30.775Z,2.20
2023-03-01T12:29:04.008Z,2.60
2023-03-01T12:31:49.881Z,2.20
2023-03-01T12:34:32.194Z,2.80
2023-03-01T12:36:59.359Z,2.45
2023-03-01T12:39:29.459Z,2.58
2023-03-01T12:41:56.500Z,2.80
2023-03-01T12:44:29.414Z,2.17
2023-03-01T12:46:59.413Z,2.55
2023-03-01T12:49:51.583Z,3.25
2023-03-01T12:52:24.633Z,2.58
2023-03-01T12:54:53.067Z,2.60
2023-03-01T12:57:27.256Z,3.05
2023-03-01T13:00:05.763Z,2.58
2023-03-01T13:02:39.034Z,3.15
2023-03-01T13:05:09.380Z,3.03
2023-03-01T13:07:43.359Z,2.80
2023-03-01T13:10:22.586Z,2.92
2023-03-01T13:12:58.858Z,2.55
2023-03-01T13:15:25.916Z,2.67
2023-03-01T13:17:54.291Z,3.20
2023-03-01T13:20:32.801Z,2.92
2023-03-01T13:23:26.395Z,3.10
2023-03-01T13:26:05.848Z,2.67
2023-03-01T13:28:35.813Z,2.53
2023-03-01T13:31:09.610Z,3.00
2023-03-01T13:33:40.748Z,4.65
2023-03-01T13:36:09.652Z,2.67
2023-03-01T13:38:42.076Z,2.50
2023-03-01T13:41:09.288Z,2.60
2023-03-01T13:43:37.964Z,3.03
2023-03-01T13:46:12.412Z,3.20
2023-03-01T13:48:40.592Z,2.75
2023-03-01T13:51:10.074Z,3.40
2023-03-01T13:53:38.840Z,3.30
2023-03-01T13:56:05.950Z,2.80
2023-03-01T13:58:34.700Z,2.83
2023-03-01T14:01:05.047Z,3.15
2023-03-01T14:03:33.889Z,3.28
2023-03-01T14:06:13.120Z,2.83
2023-03-01T14:08:44.056Z,2.72
2023-03-01T14:11:31.532Z,3.05
2023-03-01T14:14:10.877Z,2.55
2023-03-01T14:17:07.214Z,2.72
2023-03-01T14:19:35.050Z,2.78
2023-03-01T14:22:20.736Z,2.83
2023-03-01T14:24:52.740Z,3.50
2023-03-01T14:29:55.635Z,3.55
2023-03-01T14:32:25.626Z,3.13
2023-03-01T14:34:52.993Z,2.90
2023-03-01T14:37:22.084Z,3.08
2023-03-01T14:39:50.160Z,3.17
2023-03-01T14:42:17.741Z,3.30
2023-03-01T14:44:46.574Z,3.70
2023-03-01T14:47:16.741Z,2.60
2023-03-01T14:49:45.225Z,2.92
2023-03-01T14:52:27.271Z,2.90
2023-03-01T14:54:55.057Z,3.60
2023-03-01T14:57:26.253Z,3.53
2023-03-01T14:59:55.579Z,4.07
2023-03-01T15:02:24.584Z,3.30
2023-03-01T15:04:54.232Z,3.05
2023-03-01T15:07:21.752Z,3.17
2023-03-01T15:09:49.546Z,4.15
2023-03-01T15:12:27.039Z,3.50
2023-03-01T15:15:03.225Z,3.60
2023-03-01T15:17:36.289Z,3.85
2023-03-01T15:22:31.122Z,4.38
2023-03-01T15:24:58.371Z,4.22
2023-03-01T15:27:26.195Z,4.13
2023-03-01T15:30:03.627Z,4.72
2023-03-01T15:32:35.499Z,4.35
2023-03-01T15:35:22.596Z,3.88
2023-03-01T15:37:50.940Z,4.07
2023-03-01T15:40:32.146Z,4.85
2023-03-01T15:43:03.620Z,3.92
2023-03-01T15:45:31.684Z,4.10
2023-03-01T15:48:02.781Z,4.55
2023-03-01T15:50:31.166Z,4.63
2023-03-01T15:52:59.854Z,4.75
2023-03-01T15:55:30.505Z,4.03
2023-03-01T15:58:01.981Z,4.65
2023-03-01T16:00:29.949Z,4.10
2023-03-01T16:02:57.435Z,4.63
2023-03-01T16:05:38.011Z,3.85
2023-03-01T16:08:06.687Z,4.82
2023-03-01T16:10:34.545Z,4.93
2023-03-01T16:13:01.652Z,4.40
2023-03-01T16:15:32.612Z,6.85
2023-03-01T16:18:00.272Z,4.30
2023-03-01T16:20:30.135Z,4.57
2023-03-01T16:23:06.012Z,5.03
2023-03-01T16:25:33.552Z,5.18
2023-03-01T16:28:04.968Z,4.40
2023-03-01T16:30:32.628Z,3.80
2023-03-01T16:32:59.869Z,4.20
2023-03-01T16:35:27.235Z,4.07
2023-03-01T16:37:54.956Z,4.70
2023-03-01T16:40:27.751Z,4.30
2023-03-01T16:42:56.596Z,4.70
2023-03-01T16:45:29.007Z,4.53
2023-03-01T16:47:56.366Z,4.55
2023-03-01T16:50:23.987Z,4.53
2023-03-01T16:52:51.145Z,4.65
2023-03-01T16:55:18.467Z,4.03
2023-03-01T16:57:45.646Z,4.50
2023-03-01T17:00:14.105Z,3.88
2023-03-01T17:02:42.456Z,4.57
2023-03-01T17:05:11.044Z,4.38
2023-03-01T17:07:38.486Z,4.57
2023-03-01T17:10:06.609Z,4.78
2023-03-01T17:12:34.839Z,4.55
2023-03-01T17:15:01.979Z,4.97
2023-03-01T17:17:29.145Z,4.82
2023-03-01T17:19:56.321Z,4.20
2023-03-01T17:22:23.389Z,4.95
2023-03-01T17:24:50.592Z,4.82
2023-03-01T17:27:18.474Z,4.85
2023-03-01T17:29:45.632Z,5.22
2023-03-01T17:32:12.923Z,5.50
2023-03-01T17:34:40.411Z,5.57
2023-03-01T17:37:07.535Z,5.55
2023-03-01T17:39:36.435Z,5.45
2023-03-01T17:42:06.154Z,6.30
2023-03-01T17:44:36.510Z,5.80
2023-03-01T17:47:04.032Z,5.95
2023-03-01T17:49:31.489Z,6.20
2023-03-01T17:51:58.789Z,6.65
2023-03-01T17:54:26.023Z,6.07
2023-03-01T17:56:53.206Z,5.05
2023-03-01T17:59:20.311Z,6.13
2023-03-01T18:01:47.833Z,5.75
2023-03-01T18:04:15.013Z,6.05
2023-03-01T18:06:42.474Z,5.63
2023-03-01T18:09:09.744Z,6.35
2023-03-01T18:11:36.924Z,6.13
2023-03-01T18:14:04.565Z,7.43
2023-03-01T18:16:33.937Z,6.63
2023-03-01T18:19:01.773Z,5.97
2023-03-01T18:21:30.049Z,6.50
2023-03-01T18:23:57.617Z,7.32
2023-03-01T18:26:25.616Z,7.00
2023-03-01T18:28:53.034Z,6.60
2023-03-01T18:31:22.555Z,7.43
2023-03-01T18:33:50.417Z,8.40
2023-03-01T18:36:27.893Z,8.25
2023-03-01T18:38:56.411Z,7.40
2023-03-01T18:41:24.606Z,7.80
2023-03-01T18:43:51.700Z,8.48
2023-03-01T18:46:20.207Z,8.18
2023-03-01T18:48:48.026Z,8.95
2023-03-01T18:51:19.493Z,8.65
2023-03-01T18:53:46.633Z,9.57
2023-03-01T18:56:14.024Z,9.80
2023-03-01T18:58:43.057Z,8.93
2023-03-01T19:01:15.200Z,9.82
2023-03-01T19:03:42.383Z,10.00
2023-03-01T19:06:09.513Z,7.50
2023-03-01T19:08:36.872Z,8.57
2023-03-01T19:11:06.037Z,9.02
2023-03-01T19:13:34.914Z,8.05
2023-03-01T19:16:05.198Z,8.10
2023-03-01T19:18:32.375Z,8.50
2023-03-01T19:21:03.826Z,7.45
2023-03-01T19:23:34.794Z,9.32
2023-03-01T19:26:06.578Z,9.50
2023-03-01T19:28:34.302Z,9.52
2023-03-01T19:31:06.535Z,8.40
2023-03-01T19:33:34.477Z,9.73
2023-03-01T19:36:02.053Z,9.10
2023-03-01T19:38:29.687Z,10.15
2023-03-01T19:40:56.958Z,9.45
2023-03-01T19:43:25.092Z,10.02
2023-03-01T19:45:52.826Z,10.70
2023-03-01T19:48:20.150Z,11.25
2023-03-01T19:50:47.314Z,11.60
2023-03-01T19:53:15.262Z,10.05
2023-03-01T19:55:42.536Z,11.80
2023-03-01T19:58:10.623Z,12.25
2023-03-01T20:00:38.449Z,13.38
2023-03-01T20:03:05.621Z,11.43
2023-03-01T20:05:36.535Z,12.60
2023-03-01T20:08:04.253Z,12.52
2023-03-01T20:10:32.468Z,12.70
2023-03-01T20:13:00.151Z,11.88
2023-03-01T20:15:27.286Z,11.60
2023-03-01T20:17:54.561Z,11.52
2023-03-01T20:20:21.825Z,11.45
2023-03-01T20:22:48.931Z,12.07
2023-03-01T20:25:16.057Z,11.88
2023-03-01T20:27:47.383Z,12.93
2023-03-01T20:30:16.055Z,14.82
2023-03-01T20:32:43.585Z,11.73
2023-03-01T20:35:11.590Z,13.18
2023-03-01T20:37:38.931Z,15.05
2023-03-01T20:40:06.312Z,12.30
2023-03-01T20:42:33.448Z,13.18
2023-03-01T20:45:00.612Z,13.07
2023-03-01T20:47:27.689Z,11.75
2023-03-01T20:49:55.627Z,13.68
2023-03-01T20:52:22.790Z,13.50
2023-03-01T20:54:49.909Z,13.95
2023-03-01T20:57:16.935Z,14.30
2023-03-01T20:59:44.068Z,12.80
2023-03-01T21:02:11.670Z,12.85
2023-03-01T21:04:38.850Z,13.02
2023-03-01T21:07:05.963Z,11.35
2023-03-01T21:09:33.142Z,14.70
2023-03-01T21:12:00.253Z,12.57
2023-03-01T21:14:27.420Z,12.60
2023-03-01T21:16:54.551Z,13.77
2023-03-01T21:19:21.995Z,13.05
2023-03-01T21:21:49.976Z,12.02
2023-03-01T21:24:17.232Z,14.35
2023-03-01T21:26:44.967Z,13.88
2023-03-01T21:29:12.176Z,14.45
2023-03-01T21:31:39.289Z,15.60
2023-03-01T21:34:06.962Z,13.70
2023-03-01T21:36:35.174Z,13.82
2023-03-01T21:39:02.666Z,13.80
2023-03-01T21:41:31.560Z,14.70
2023-03-01T21:44:03.147Z,15.57
2023-03-01T21:46:31.865Z,15.10
2023-03-01T21:48:59.296Z,15.00
2023-03-01T21:51:27.368Z,15.77
2023-03-01T21:53:57.273Z,14.88
2023-03-01T21:56:25.575Z,16.52
2023-03-01T21:58:52.781Z,16.08
2023-03-01T22:01:21.727Z,16.35
2023-03-01T22:03:48.832Z,15.27
2023-03-01T22:06:22.693Z,15.18
2023-03-01T22:08:51.275Z,14.70
2023-03-01T22:11:19.463Z,16.20
2023-03-01T22:13:52.274Z,15.98
2023-03-01T22:16:20.585Z,15.10
2023-03-01T22:18:48.314Z,16.65
2023-03-01T22:21:15.464Z,16.00
2023-03-01T22:23:42.620Z,14.52
2023-03-01T22:26:10.381Z,15.55
2023-03-01T22:28:37.497Z,15.00
2023-03-01T22:31:05.515Z,15.40
2023-03-01T22:33:33.016Z,16.55
2023-03-01T22:36:00.228Z,16.27
2023-03-01T22:38:27.351Z,16.00
2023-03-01T22:41:01.777Z,15.45
2023-03-01T22:43:29.743Z,15.02
2023-03-01T22:45:56.924Z,14.90
2023-03-01T22:48:24.382Z,14.93
2023-03-01T22:50:51.536Z,14.23
2023-03-01T22:53:19.308Z,13.77
2023-03-01T22:55:46.457Z,14.73
2023-03-01T22:58:13.704Z,15.50
2023-03-01T23:00:40.772Z,14.27
2023-03-01T23:03:08.087Z,14.23
2023-03-01T23:05:35.576Z,15.07
2023-03-01T23:08:02.696Z,15.18
2023-03-01T23:10:29.900Z,14.38
2023-03-01T23:12:57.341Z,13.57
2023-03-01T23:15:24.720Z,15.75
2023-03-01T23:17:51.781Z,14.98
2023-03-01T23:20:18.864Z,15.18
2023-03-01T23:22:45.913Z,13.73
2023-03-01T23:25:13.174Z,13.80
2023-03-01T23:27:40.400Z,14.52
2023-03-01T23:30:08.658Z,14.05
2023-03-01T23:32:40.316Z,14.27
2023-03-01T23:35:09.774Z,13.82
2023-03-01T23:37:37.270Z,15.73
2023-03-01T23:40:06.240Z,12.98
2023-03-01T23:42:36.271Z,14.55
2023-03-01T23:45:03.387Z,14.88
2023-03-01T23:47:30.484Z,13.20
2023-03-01T23:49:57.620Z,15.45
2023-03-01T23:52:25.097Z,13.48
2023-03-01T23:54:52.230Z,12.60
2023-03-01T23:57:19.964Z,14.48
2023-03-01T23:59:47.142Z,14.07
